createdAt,value
2023-04-16T00:00:10.609Z,6.10
2023-04-16T00:03:33.021Z,5.98
2023-04-16T00:06:49.822Z,5.95
2023-04-16T00:10:06.936Z,5.93
2023-04-16T00:13:23.682Z,5.89
2023-04-16T00:16:41.975Z,5.92
2023-04-16T00:19:58.918Z,6.00
2023-04-16T00:23:16.458Z,5.97
2023-04-16T00:26:32.914Z,5.74
2023-04-16T00:29:49.614Z,5.58
2023-04-16T00:33:06.540Z,5.40
2023-04-16T00:36:23.054Z,5.43
2023-04-16T00:39:41.781Z,5.53
2023-04-16T00:42:59.090Z,5.52
2023-04-16T00:46:16.615Z,5.44
2023-04-16T00:49:33.662Z,5.40
2023-04-16T00:58:58.905Z,5.35
2023-04-16T01:02:15.674Z,5.35
2023-04-16T01:05:32.366Z,5.38
2023-04-16T01:08:48.900Z,5.37
2023-04-16T01:12:05.352Z,5.28
2023-04-16T01:15:22.320Z,5.16
2023-04-16T01:18:38.742Z,5.11
2023-04-16T01:21:55.105Z,5.16
2023-04-16T01:25:12.136Z,5.19
2023-04-16T01:28:28.723Z,4.97
2023-04-16T01:31:45.378Z,4.91
2023-04-16T01:35:07.013Z,4.91
2023-04-16T01:44:31.884Z,4.86
2023-04-16T01:47:48.704Z,4.89
2023-04-16T01:51:05.901Z,4.89
2023-04-16T01:54:22.338Z,4.64
2023-04-16T01:57:41.219Z,4.67
2023-04-16T02:00:57.778Z,4.79
2023-04-16T02:04:15.216Z,4.73
2023-04-16T02:07:32.845Z,4.61
2023-04-16T02:10:49.218Z,4.62
2023-04-16T02:14:06.190Z,4.62
2023-04-16T02:17:23.334Z,4.63
2023-04-16T02:20:41.945Z,4.62
2023-04-16T02:23:59.147Z,4.53
2023-04-16T02:27:17.873Z,4.33
2023-04-16T02:30:35.800Z,4.35
2023-04-16T02:33:52.813Z,4.38
2023-04-16T02:37:10.252Z,4.38
2023-04-16T02:40:29.039Z,4.41
2023-04-16T02:43:45.454Z,4.38
2023-04-16T02:47:02.543Z,4.26
2023-04-16T02:50:20.595Z,4.18
2023-04-16T02:53:37.454Z,4.20
2023-04-16T02:56:54.317Z,4.28
2023-04-16T03:00:12.345Z,4.31
2023-04-16T03:03:30.233Z,4.27
2023-04-16T03:06:47.459Z,4.17
2023-04-16T03:10:05.299Z,4.14
2023-04-16T03:13:21.916Z,4.10
2023-04-16T03:16:40.436Z,4.17
2023-04-16T03:19:56.801Z,4.23
2023-04-16T03:27:07.406Z,4.11
2023-04-16T03:30:24.505Z,4.18
2023-04-16T03:33:40.849Z,4.19
2023-04-16T03:36:57.334Z,4.15
2023-04-16T03:40:16.438Z,4.22
2023-04-16T03:43:33.121Z,4.17
2023-04-16T03:46:50.183Z,4.19
2023-04-16T03:50:07.018Z,4.20
2023-04-16T03:58:22.118Z,4.10
2023-04-16T04:01:42.392Z,4.09
2023-04-16T04:04:59.545Z,4.02
2023-04-16T04:08:17.110Z,4.03
2023-04-16T04:11:36.491Z,4.03
2023-04-16T04:14:53.547Z,4.09
2023-04-16T04:18:10.137Z,4.03
2023-04-16T04:21:27.013Z,4.08
2023-04-16T04:24:43.518Z,4.12
2023-04-16T04:27:59.768Z,4.25
2023-04-16T04:31:17.758Z,4.38
2023-04-16T04:34:34.288Z,4.50
2023-04-16T04:37:51.494Z,4.61
2023-04-16T04:41:11.711Z,4.68
2023-04-16T04:44:28.314Z,4.67
2023-04-16T04:47:48.666Z,4.67
2023-04-16T04:51:06.161Z,4.65
2023-04-16T04:54:25.958Z,4.66
2023-04-16T04:57:44.750Z,4.87
2023-04-16T05:01:03.891Z,5.04
2023-04-16T05:04:20.547Z,5.16
2023-04-16T05:07:43.058Z,5.32
2023-04-16T05:11:02.602Z,5.43
2023-04-16T05:14:19.294Z,5.70
2023-04-16T05:17:35.747Z,5.94
2023-04-16T05:20:52.660Z,6.11
2023-04-16T05:24:09.713Z,6.31
2023-04-16T05:27:28.428Z,6.40
2023-04-16T05:30:45.047Z,6.53
2023-04-16T05:34:02.231Z,6.65
2023-04-16T05:37:18.913Z,6.92
2023-04-16T05:40:35.357Z,7.11
2023-04-16T05:43:51.823Z,7.26
2023-04-16T05:47:13.095Z,7.50
2023-04-16T05:50:30.821Z,7.71
2023-04-16T05:53:47.536Z,7.98
2023-04-16T05:57:04.142Z,8.20
2023-04-16T06:00:29.198Z,8.32
2023-04-16T06:03:46.156Z,8.53
2023-04-16T06:07:02.777Z,8.85
2023-04-16T06:10:21.857Z,8.95
2023-04-16T06:13:46.896Z,9.16
2023-04-16T06:17:03.237Z,9.28
2023-04-16T06:20:22.608Z,9.76
2023-04-16T06:23:36.671Z,10.01
2023-04-16T06:26:52.906Z,10.47
2023-04-16T06:30:10.876Z,10.71
2023-04-16T06:33:27.485Z,10.86
2023-04-16T06:36:45.252Z,11.01
2023-04-16T06:40:17.429Z,11.21
2023-04-16T06:43:34.695Z,11.40
2023-04-16T06:46:52.008Z,11.79
2023-04-16T06:50:08.728Z,12.00
2023-04-16T06:53:25.634Z,12.28
2023-04-16T06:56:43.294Z,12.61
2023-04-16T06:59:59.807Z,12.92
2023-04-16T07:03:19.046Z,13.28
2023-04-16T07:06:35.934Z,13.40
2023-04-16T07:09:53.429Z,13.24
2023-04-16T07:13:11.101Z,13.53
2023-04-16T07:16:28.323Z,13.65
2023-04-16T07:19:45.559Z,14.06
2023-04-16T07:23:02.455Z,14.43
2023-04-16T07:26:18.798Z,14.71
2023-04-16T07:29:35.095Z,15.60
2023-04-16T07:32:56.074Z,15.77
2023-04-16T07:36:13.248Z,15.99
2023-04-16T07:42:33.174Z,16.75
2023-04-16T07:45:50.375Z,17.54
2023-04-16T07:49:07.928Z,18.14
2023-04-16T07:52:25.178Z,18.07
2023-04-16T07:59:23.650Z,18.94
2023-04-16T08:02:56.494Z,19.05
2023-04-16T08:06:19.237Z,18.56
2023-04-16T08:09:36.845Z,19.16
2023-04-16T08:12:53.812Z,19.27
2023-04-16T08:22:35.185Z,18.72
2023-04-16T08:26:13.430Z,17.75
2023-04-16T08:30:18.557Z,17.34
2023-04-16T08:34:09.833Z,16.18
2023-04-16T08:37:36.687Z,16.84
2023-04-16T08:52:28.086Z,19.19
2023-04-16T08:55:54.218Z,19.50
2023-04-16T08:59:11.125Z,20.20
2023-04-16T09:02:28.645Z,20.12
2023-04-16T09:05:50.127Z,20.13
2023-04-16T09:09:08.767Z,20.61
2023-04-16T09:12:27.475Z,20.18
2023-04-16T09:15:44.180Z,19.60
2023-04-16T09:19:01.971Z,19.61
2023-04-16T09:22:23.074Z,18.23
2023-04-16T09:25:44.938Z,17.40
2023-04-16T09:29:02.912Z,18.01
2023-04-16T09:32:20.636Z,18.65
2023-04-16T09:35:39.484Z,19.01
2023-04-16T09:39:15.017Z,19.22
2023-04-16T09:42:39.560Z,18.73
2023-04-16T09:46:01.076Z,18.13
2023-04-16T09:49:24.174Z,17.93
2023-04-16T09:52:48.861Z,17.37
2023-04-16T09:56:12.652Z,17.69
2023-04-16T09:59:34.842Z,17.88
2023-04-16T10:02:51.759Z,17.80
2023-04-16T10:06:18.460Z,17.83
2023-04-16T10:09:40.968Z,17.39
2023-04-16T10:12:58.932Z,17.21
2023-04-16T10:16:18.717Z,16.71
2023-04-16T10:19:37.156Z,16.87
2023-04-16T10:22:54.103Z,16.97
2023-04-16T10:26:11.433Z,17.29
2023-04-16T10:29:29.478Z,16.89
2023-04-16T10:32:47.360Z,16.93
2023-04-16T10:36:18.550Z,17.05
2023-04-16T10:39:38.276Z,17.25
2023-04-16T10:43:03.842Z,17.16
2023-04-16T10:46:49.831Z,17.49
2023-04-16T10:50:08.328Z,17.89
2023-04-16T10:53:34.859Z,17.58
2023-04-16T10:56:52.928Z,17.78
2023-04-16T11:00:10.064Z,18.03
2023-04-16T11:03:27.647Z,17.81
2023-04-16T11:06:45.375Z,18.21
2023-04-16T11:10:05.145Z,17.69
2023-04-16T11:13:23.845Z,17.59
2023-04-16T11:16:42.018Z,17.52
2023-04-16T11:20:02.954Z,17.56
2023-04-16T11:23:23.558Z,17.42
2023-04-16T11:26:40.305Z,16.88
2023-04-16T11:30:06.957Z,17.00
2023-04-16T11:33:23.557Z,16.61
2023-04-16T11:36:53.874Z,16.41
2023-04-16T11:40:12.509Z,16.26
2023-04-16T11:43:39.518Z,16.00
2023-04-16T11:47:00.225Z,16.18
2023-04-16T11:50:33.346Z,16.23
2023-04-16T11:54:02.526Z,16.07
2023-04-16T11:57:19.267Z,16.16
2023-04-16T12:00:47.003Z,16.39
2023-04-16T12:04:10.987Z,16.45
2023-04-16T12:07:28.656Z,16.42
2023-04-16T12:10:51.745Z,16.44
2023-04-16T12:14:22.381Z,16.61
2023-04-16T12:17:41.280Z,16.76
2023-04-16T12:20:58.161Z,16.85
2023-04-16T12:24:17.047Z,16.81
2023-04-16T12:27:33.577Z,16.79
2023-04-16T12:30:58.596Z,16.66
2023-04-16T12:34:16.141Z,16.71
2023-04-16T12:37:33.128Z,16.76
2023-04-16T12:40:49.554Z,16.69
2023-04-16T12:44:15.337Z,16.70
2023-04-16T12:47:31.837Z,16.43
2023-04-16T12:50:50.942Z,16.32
2023-04-16T12:54:12.723Z,16.36
2023-04-16T12:57:30.257Z,16.28
2023-04-16T13:00:46.920Z,16.24
2023-04-16T13:04:03.490Z,16.19
2023-04-16T13:07:20.363Z,16.15
2023-04-16T13:10:36.876Z,16.11
2023-04-16T13:13:53.248Z,16.12
2023-04-16T13:17:09.666Z,16.16
2023-04-16T13:20:26.699Z,16.15
2023-04-16T13:23:44.636Z,16.14
2023-04-16T13:27:02.000Z,16.14
2023-04-16T13:30:22.143Z,16.10
2023-04-16T13:33:40.340Z,16.11
2023-04-16T13:36:59.169Z,16.05
2023-04-16T13:40:18.111Z,16.12
2023-04-16T13:43:34.813Z,16.04
2023-04-16T13:46:53.619Z,16.03
2023-04-16T13:50:11.314Z,16.02
2023-04-16T13:53:27.712Z,16.05
2023-04-16T13:56:44.867Z,16.06
2023-04-16T14:00:06.426Z,16.08
2023-04-16T14:03:24.297Z,16.01
2023-04-16T14:06:42.165Z,15.97
2023-04-16T14:09:59.638Z,15.96
2023-04-16T14:13:17.938Z,15.90
2023-04-16T14:16:34.675Z,15.89
2023-04-16T14:19:51.206Z,15.90
2023-04-16T14:23:08.173Z,15.89
2023-04-16T14:26:25.608Z,15.79
2023-04-16T14:29:43.496Z,15.85
2023-04-16T14:33:04.924Z,15.82
2023-04-16T14:36:22.144Z,15.80
2023-04-16T14:39:40.176Z,15.85
2023-04-16T14:43:03.713Z,15.83
2023-04-16T14:46:21.644Z,15.84
2023-04-16T14:49:36.032Z,15.83
2023-04-16T14:53:03.104Z,15.80
2023-04-16T14:56:20.762Z,15.78
2023-04-16T14:59:37.991Z,15.74
2023-04-16T15:02:55.489Z,15.76
2023-04-16T15:06:16.738Z,15.67
2023-04-16T15:09:35.431Z,15.66
2023-04-16T15:12:52.751Z,15.62
2023-04-16T15:16:10.630Z,15.60
2023-04-16T15:19:27.742Z,15.59
2023-04-16T15:22:44.343Z,15.60
2023-04-16T15:26:00.779Z,15.58
2023-04-16T15:29:17.473Z,15.57
2023-04-16T15:32:39.615Z,15.53
2023-04-16T15:36:06.974Z,15.48
2023-04-16T15:39:24.636Z,15.50
2023-04-16T15:42:42.426Z,15.47
2023-04-16T15:46:31.690Z,15.45
2023-04-16T15:49:53.669Z,15.35
2023-04-16T15:53:10.404Z,15.32
2023-04-16T15:56:27.415Z,15.29
2023-04-16T15:59:52.895Z,15.30
2023-04-16T16:03:02.661Z,15.27
2023-04-16T16:06:21.771Z,15.22
2023-04-16T16:09:38.539Z,15.14
2023-04-16T16:12:55.298Z,15.07
2023-04-16T16:16:11.939Z,15.03
2023-04-16T16:19:29.642Z,15.00
2023-04-16T16:22:47.586Z,14.97
2023-04-16T16:26:07.168Z,14.97
2023-04-16T16:29:26.717Z,14.93
2023-04-16T16:32:48.804Z,14.91
2023-04-16T16:36:36.875Z,14.88
2023-04-16T16:39:53.707Z,14.86
2023-04-16T16:43:54.875Z,14.81
2023-04-16T16:47:11.679Z,14.76
2023-04-16T16:50:31.769Z,14.71
2023-04-16T16:53:49.571Z,14.67
2023-04-16T16:57:08.638Z,14.64
2023-04-16T17:00:27.550Z,14.59
2023-04-16T17:03:44.248Z,14.56
2023-04-16T17:07:00.913Z,14.52
2023-04-16T17:10:21.783Z,14.49
2023-04-16T17:13:38.469Z,14.47
2023-04-16T17:16:55.508Z,14.45
2023-04-16T17:20:14.187Z,14.37
2023-04-16T17:23:31.219Z,14.28
2023-04-16T17:26:48.896Z,14.15
2023-04-16T17:30:08.284Z,13.96
2023-04-16T17:33:25.121Z,13.92
2023-04-16T17:36:42.337Z,13.89
2023-04-16T17:39:58.885Z,13.88
2023-04-16T17:43:18.017Z,13.88
2023-04-16T17:46:37.765Z,13.87
2023-04-16T17:50:02.371Z,13.87
2023-04-16T17:53:48.150Z,13.86
2023-04-16T17:57:14.174Z,13.80
2023-04-16T18:00:43.536Z,13.72
2023-04-16T18:04:01.585Z,13.51
2023-04-16T18:07:19.224Z,13.35
2023-04-16T18:10:37.404Z,13.14
2023-04-16T18:13:54.966Z,12.93
2023-04-16T18:17:11.994Z,12.86
2023-04-16T18:20:29.014Z,12.66
2023-04-16T18:23:46.112Z,12.50
2023-04-16T18:27:08.282Z,12.35
2023-04-16T18:30:26.823Z,12.21
2023-04-16T18:33:56.314Z,12.16
2023-04-16T18:37:02.137Z,12.15
2023-04-16T18:40:23.617Z,11.92
2023-04-16T18:43:41.220Z,11.83
2023-04-16T18:47:01.746Z,11.87
2023-04-16T18:50:26.644Z,11.95
2023-04-16T18:53:44.140Z,11.81
2023-04-16T18:57:02.728Z,11.70
2023-04-16T19:00:23.184Z,11.56
2023-04-16T19:03:45.090Z,11.45
2023-04-16T19:07:10.837Z,11.36
2023-04-16T19:10:28.089Z,11.32
2023-04-16T19:13:48.451Z,11.24
2023-04-16T19:17:08.637Z,11.20
2023-04-16T19:20:34.240Z,11.13
2023-04-16T19:23:51.123Z,11.02
2023-04-16T19:27:08.179Z,10.95
2023-04-16T19:30:28.152Z,10.89
2023-04-16T19:33:46.796Z,10.73
2023-04-16T19:37:03.312Z,10.73
2023-04-16T19:40:48.808Z,10.69
2023-04-16T19:44:26.158Z,10.75
2023-04-16T19:48:04.474Z,10.72
2023-04-16T19:51:45.697Z,10.71
2023-04-16T19:55:06.893Z,10.59
2023-04-16T19:58:47.618Z,10.43
2023-04-16T20:02:22.888Z,10.33
2023-04-16T20:05:59.472Z,10.27
2023-04-16T20:09:20.066Z,10.23
2023-04-16T20:12:36.379Z,10.21
2023-04-16T20:15:52.753Z,10.12
2023-04-16T20:19:12.950Z,10.10
2023-04-16T20:22:30.691Z,10.06
2023-04-16T20:25:51.137Z,9.97
2023-04-16T20:29:09.158Z,10.01
2023-04-16T20:32:27.656Z,10.02
2023-04-16T20:35:48.679Z,9.90
2023-04-16T20:39:03.346Z,9.83
2023-04-16T20:42:23.976Z,9.69
2023-04-16T20:45:46.045Z,9.69
2023-04-16T20:49:05.097Z,9.62
2023-04-16T20:52:23.954Z,9.54
2023-04-16T20:55:46.647Z,9.52
2023-04-16T20:59:04.176Z,9.51
2023-04-16T21:02:22.846Z,9.46
2023-04-16T21:05:42.166Z,9.56
2023-04-16T21:08:58.788Z,9.48
2023-04-16T21:12:15.930Z,9.46
2023-04-16T21:15:32.444Z,9.48
2023-04-16T21:18:48.970Z,9.42
2023-04-16T21:22:08.106Z,9.36
2023-04-16T21:25:26.136Z,9.32
2023-04-16T21:28:43.180Z,9.11
2023-04-16T21:32:00.293Z,9.24
2023-04-16T21:35:18.455Z,8.97
2023-04-16T21:38:35.415Z,8.97
2023-04-16T21:41:52.244Z,8.95
2023-04-16T21:45:09.148Z,8.95
2023-04-16T21:48:25.508Z,8.81
2023-04-16T21:51:44.002Z,8.61
2023-04-16T21:54:58.047Z,8.74
2023-04-16T21:58:14.198Z,8.61
2023-04-16T22:01:30.714Z,8.75
2023-04-16T22:04:47.240Z,8.83
2023-04-16T22:08:16.870Z,8.84
2023-04-16T22:11:26.640Z,8.82
2023-04-16T22:14:55.829Z,8.72
2023-04-16T22:18:02.972Z,8.80
2023-04-16T22:21:19.960Z,8.66
2023-04-16T22:24:36.778Z,8.53
2023-04-16T22:27:54.577Z,8.48
2023-04-16T22:31:14.213Z,8.48
2023-04-16T22:34:32.323Z,8.41
2023-04-16T22:37:49.153Z,8.32
2023-04-16T22:41:05.856Z,8.19
2023-04-16T22:44:24.167Z,8.10
2023-04-16T22:47:41.123Z,8.15
2023-04-16T22:50:58.611Z,8.16
2023-04-16T22:54:15.327Z,7.94
2023-04-16T22:57:32.918Z,7.99
2023-04-16T23:00:49.573Z,7.84
2023-04-16T23:04:06.955Z,7.92
2023-04-16T23:07:23.965Z,7.85
2023-04-16T23:10:43.223Z,7.84
2023-04-16T23:13:59.782Z,7.66
2023-04-16T23:17:16.295Z,7.78
2023-04-16T23:20:36.572Z,7.93
2023-04-16T23:23:54.164Z,7.94
2023-04-16T23:27:13.667Z,7.90
2023-04-16T23:30:30.323Z,7.87
2023-04-16T23:33:46.640Z,7.60
2023-04-16T23:37:04.516Z,7.50
2023-04-16T23:40:24.026Z,7.43
2023-04-16T23:43:41.668Z,7.46
2023-04-16T23:46:59.111Z,7.28
2023-04-16T23:50:17.437Z,7.27
2023-04-16T23:53:34.128Z,7.20
2023-04-16T23:56:51.020Z,7.18
